createdAt,value
2023-04-07T00:01:39.131Z,100899.50
2023-04-07T00:04:05.759Z,100901.19
2023-04-07T00:06:32.845Z,100902.84
2023-04-07T00:08:59.383Z,100899.22
2023-04-07T00:11:26.014Z,100899.09
2023-04-07T00:13:52.719Z,100907.66
2023-04-07T00:16:19.521Z,100905.78
2023-04-07T00:18:46.222Z,100912.44
2023-04-07T00:21:12.708Z,100905.41
2023-04-07T00:23:40.355Z,100911.25
2023-04-07T00:26:06.740Z,100913.66
2023-04-07T00:28:33.130Z,100913.34
2023-04-07T00:30:59.687Z,100909.59
2023-04-07T00:33:26.167Z,100904.09
2023-04-07T00:35:54.304Z,100909.00
2023-04-07T00:38:20.895Z,100907.03
2023-04-07T00:40:47.362Z,100900.06
2023-04-07T00:43:13.874Z,100909.22
2023-04-07T00:45:40.372Z,100910.91
2023-04-07T00:48:07.300Z,100898.50
2023-04-07T00:50:33.754Z,100889.03
2023-04-07T00:53:00.692Z,100895.69
2023-04-07T00:55:27.121Z,100893.84
2023-04-07T00:57:53.513Z,100890.31
2023-04-07T01:00:20.125Z,100891.97
2023-04-07T01:02:55.705Z,100888.41
2023-04-07T01:05:51.327Z,100893.41
2023-04-07T01:08:24.085Z,100896.88
2023-04-07T01:10:53.356Z,100882.06
2023-04-07T01:13:30.760Z,100894.16
2023-04-07T01:16:00.864Z,100883.84
2023-04-07T01:18:33.617Z,100889.78
2023-04-07T01:21:07.699Z,100885.41
2023-04-07T01:24:12.887Z,100887.06
2023-04-07T01:26:40.453Z,100880.94
2023-04-07T01:29:37.394Z,100885.28
2023-04-07T01:32:08.065Z,100892.16
2023-04-07T01:34:37.153Z,100893.94
2023-04-07T01:37:04.699Z,100888.75
2023-04-07T01:39:32.611Z,100886.13
2023-04-07T01:42:02.246Z,100891.44
2023-04-07T01:44:30.205Z,100893.09
2023-04-07T01:46:57.106Z,100889.16
2023-04-07T01:49:25.214Z,100895.19
2023-04-07T01:51:52.408Z,100895.94
2023-04-07T01:54:19.382Z,100892.69
2023-04-07T01:56:45.990Z,100897.81
2023-04-07T01:59:12.529Z,100890.72
2023-04-07T02:01:39.249Z,100898.44
2023-04-07T02:04:19.425Z,100895.72
2023-04-07T02:06:53.118Z,100894.97
2023-04-07T02:09:22.620Z,100896.78
2023-04-07T02:11:51.096Z,100905.31
2023-04-07T02:14:20.322Z,100893.94
2023-04-07T02:16:49.044Z,100891.56
2023-04-07T02:19:15.870Z,100892.47
2023-04-07T02:21:43.582Z,100903.84
2023-04-07T02:24:11.856Z,100894.34
2023-04-07T02:26:38.590Z,100905.50
2023-04-07T02:29:05.587Z,100897.09
2023-04-07T02:31:32.360Z,100893.72
2023-04-07T02:33:58.808Z,100898.13
2023-04-07T02:36:26.312Z,100892.91
2023-04-07T02:38:52.783Z,100894.56
2023-04-07T02:41:19.254Z,100899.88
2023-04-07T02:43:46.064Z,100900.00
2023-04-07T02:46:13.734Z,100902.47
2023-04-07T02:48:41.195Z,100900.81
2023-04-07T02:51:07.609Z,100899.88
2023-04-07T02:53:34.058Z,100900.72
2023-04-07T02:56:00.677Z,100907.03
2023-04-07T02:58:27.123Z,100908.06
2023-04-07T03:00:53.697Z,100906.41
2023-04-07T03:03:20.481Z,100918.81
2023-04-07T03:05:47.025Z,100916.19
2023-04-07T03:08:13.522Z,100918.06
2023-04-07T03:10:39.985Z,100911.94
2023-04-07T03:13:08.309Z,100915.38
2023-04-07T03:15:34.850Z,100911.50
2023-04-07T03:18:01.316Z,100918.38
2023-04-07T03:20:27.840Z,100916.63
2023-04-07T03:22:54.253Z,100921.09
2023-04-07T03:25:21.282Z,100933.91
2023-04-07T03:27:47.683Z,100916.72
2023-04-07T03:30:14.211Z,100926.31
2023-04-07T03:32:40.710Z,100915.78
2023-04-07T03:35:07.713Z,100927.13
2023-04-07T03:37:34.174Z,100927.34
2023-04-07T03:40:00.615Z,100927.34
2023-04-07T03:42:27.016Z,100929.00
2023-04-07T03:44:53.409Z,100930.03
2023-04-07T03:47:19.836Z,100918.69
2023-04-07T03:49:46.316Z,100920.47
2023-04-07T03:52:12.775Z,100923.97
2023-04-07T03:54:39.214Z,100926.69
2023-04-07T03:57:05.818Z,100936.16
2023-04-07T03:59:32.357Z,100936.38
2023-04-07T04:01:58.902Z,100930.53
2023-04-07T04:04:25.542Z,100932.19
2023-04-07T04:06:52.324Z,100936.84
2023-04-07T04:09:18.902Z,100934.47
2023-04-07T04:11:45.377Z,100932.69
2023-04-07T04:14:12.387Z,100937.38
2023-04-07T04:16:38.860Z,100943.28
2023-04-07T04:19:05.373Z,100938.94
2023-04-07T04:21:31.896Z,100943.50
2023-04-07T04:23:58.361Z,100949.72
2023-04-07T04:26:26.111Z,100943.69
2023-04-07T04:28:53.020Z,100943.59
2023-04-07T04:31:19.622Z,100948.06
2023-04-07T04:33:46.494Z,100948.16
2023-04-07T04:36:13.316Z,100948.38
2023-04-07T04:38:39.823Z,100952.72
2023-04-07T04:41:06.219Z,100961.53
2023-04-07T04:43:32.618Z,100954.69
2023-04-07T04:45:59.071Z,100962.59
2023-04-07T04:48:25.473Z,100959.06
2023-04-07T04:50:51.898Z,100960.94
2023-04-07T04:53:18.257Z,100964.44
2023-04-07T04:55:47.201Z,100963.63
2023-04-07T04:58:13.673Z,100970.69
2023-04-07T05:00:40.189Z,100973.19
2023-04-07T05:03:06.981Z,100976.81
2023-04-07T05:05:33.540Z,100967.25
2023-04-07T05:07:59.984Z,100976.28
2023-04-07T05:10:26.409Z,100979.69
2023-04-07T05:12:52.887Z,100981.38
2023-04-07T05:15:19.510Z,100982.50
2023-04-07T05:17:50.403Z,100980.75
2023-04-07T05:20:17.384Z,100989.38
2023-04-07T05:22:43.798Z,100985.94
2023-04-07T05:25:10.801Z,100989.38
2023-04-07T05:27:37.206Z,100997.81
2023-04-07T05:30:03.931Z,100996.06
2023-04-07T05:32:30.417Z,100988.25
2023-04-07T05:34:56.951Z,100989.94
2023-04-07T05:37:23.442Z,100993.63
2023-04-07T05:39:49.934Z,100995.94
2023-04-07T05:42:16.437Z,100999.59
2023-04-07T05:44:42.865Z,101009.25
2023-04-07T05:47:09.432Z,101001.44
2023-04-07T05:49:35.893Z,101005.72
2023-04-07T05:52:03.539Z,101014.28
2023-04-07T05:54:30.151Z,101005.41
2023-04-07T05:56:56.562Z,101010.44
2023-04-07T05:59:23.030Z,101011.09
2023-04-07T06:01:49.721Z,101012.75
2023-04-07T06:04:16.248Z,101011.19
2023-04-07T06:06:42.658Z,101022.31
2023-04-07T06:09:09.048Z,101027.44
2023-04-07T06:11:35.492Z,101021.38
2023-04-07T06:14:01.960Z,101024.00
2023-04-07T06:16:28.418Z,101031.72
2023-04-07T06:18:54.943Z,101030.97
2023-04-07T06:21:21.416Z,101026.72
2023-04-07T06:23:48.466Z,101038.69
2023-04-07T06:26:15.504Z,101032.72
2023-04-07T06:28:42.166Z,101031.78
2023-04-07T06:31:09.014Z,101039.44
2023-04-07T06:33:35.645Z,101037.13
2023-04-07T06:36:02.250Z,101049.09
2023-04-07T06:38:28.766Z,101047.13
2023-04-07T06:40:55.258Z,101047.88
2023-04-07T06:43:21.755Z,101047.78
2023-04-07T06:45:48.252Z,101048.72
2023-04-07T06:48:14.666Z,101045.09
2023-04-07T06:50:41.159Z,101062.44
2023-04-07T06:53:07.587Z,101059.84
2023-04-07T06:55:34.018Z,101054.47
2023-04-07T06:58:00.474Z,101061.34
2023-04-07T07:00:30.089Z,101066.56
2023-04-07T07:02:57.551Z,101058.66
2023-04-07T07:05:24.288Z,101061.91
2023-04-07T07:07:51.668Z,101065.31
2023-04-07T07:10:20.336Z,101066.91
2023-04-07T07:12:46.794Z,101079.94
2023-04-07T07:15:13.208Z,101082.53
2023-04-07T07:17:39.660Z,101079.84
2023-04-07T07:20:06.637Z,101080.56
2023-04-07T07:22:33.077Z,101087.53
2023-04-07T07:24:59.513Z,101089.31
2023-04-07T07:27:26.168Z,101083.19
2023-04-07T07:29:52.684Z,101088.25
2023-04-07T07:32:19.247Z,101088.25
2023-04-07T07:34:45.704Z,101094.22
2023-04-07T07:37:12.467Z,101099.31
2023-04-07T07:39:39.208Z,101100.38
2023-04-07T07:42:05.674Z,101103.88
2023-04-07T07:44:32.634Z,101100.53
2023-04-07T07:46:59.515Z,101091.63
2023-04-07T07:49:28.060Z,101086.88
2023-04-07T07:51:54.491Z,101093.66
2023-04-07T07:54:20.936Z,101093.25
2023-04-07T07:56:47.326Z,101100.16
2023-04-07T07:59:13.912Z,101100.69
2023-04-07T08:01:41.248Z,101101.41
2023-04-07T08:04:07.965Z,101110.72
2023-04-07T08:06:34.671Z,101108.03
2023-04-07T08:09:01.075Z,101111.53
2023-04-07T08:11:27.523Z,101118.34
2023-04-07T08:13:54.316Z,101109.69
2023-04-07T08:16:22.077Z,101121.50
2023-04-07T08:18:48.909Z,101123.09
2023-04-07T08:21:15.996Z,101121.03
2023-04-07T08:23:42.503Z,101127.09
2023-04-07T08:26:09.030Z,101123.63
2023-04-07T08:28:35.738Z,101131.78
2023-04-07T08:31:02.269Z,101127.97
2023-04-07T08:33:28.710Z,101132.06
2023-04-07T08:35:55.087Z,101132.34
2023-04-07T08:38:22.211Z,101127.22
2023-04-07T08:40:58.354Z,101139.03
2023-04-07T08:43:26.782Z,101138.19
2023-04-07T08:45:56.670Z,101151.41
2023-04-07T08:48:27.226Z,101148.72
2023-04-07T08:50:54.637Z,101145.38
2023-04-07T08:53:28.163Z,101142.94
2023-04-07T08:55:56.335Z,101151.63
2023-04-07T08:58:23.352Z,101159.63
2023-04-07T09:00:50.699Z,101153.78
2023-04-07T09:03:18.271Z,101163.16
2023-04-07T09:05:48.641Z,101162.63
2023-04-07T09:08:15.195Z,101156.69
2023-04-07T09:10:41.818Z,101156.69
2023-04-07T09:13:08.320Z,101160.00
2023-04-07T09:15:38.009Z,101166.69
2023-04-07T09:18:05.557Z,101166.69
2023-04-07T09:21:02.344Z,101164.28
2023-04-07T09:23:33.374Z,101169.22
2023-04-07T09:26:18.268Z,101176.94
2023-04-07T09:28:46.634Z,101167.34
2023-04-07T09:31:13.126Z,101169.75
2023-04-07T09:33:39.789Z,101170.88
2023-04-07T09:36:07.309Z,101174.50
2023-04-07T09:38:35.802Z,101181.22
2023-04-07T09:41:31.399Z,101181.06
2023-04-07T09:43:58.452Z,101184.75
2023-04-07T09:46:26.194Z,101191.66
2023-04-07T09:49:05.031Z,101184.94
2023-04-07T09:51:31.482Z,101187.28
2023-04-07T09:53:58.201Z,101189.69
2023-04-07T09:56:25.330Z,101190.34
2023-04-07T09:58:51.899Z,101190.91
2023-04-07T10:01:19.213Z,101183.63
2023-04-07T10:03:47.751Z,101190.50
2023-04-07T10:06:14.696Z,101187.78
2023-04-07T10:08:43.021Z,101181.34
2023-04-07T10:11:10.277Z,101181.75
2023-04-07T10:13:39.420Z,101184.06
2023-04-07T10:16:07.572Z,101192.72
2023-04-07T10:18:36.140Z,101184.06
2023-04-07T10:21:04.716Z,101194.38
2023-04-07T10:23:47.836Z,101194.47
2023-04-07T10:26:19.765Z,101185.28
2023-04-07T10:28:52.016Z,101190.31
2023-04-07T10:31:19.088Z,101191.34
2023-04-07T10:33:56.442Z,101192.91
2023-04-07T10:36:23.397Z,101191.56
2023-04-07T10:39:08.258Z,101193.50
2023-04-07T10:41:38.665Z,101200.66
2023-04-07T10:44:06.809Z,101194.19
2023-04-07T10:46:45.316Z,101204.22
2023-04-07T10:49:13.350Z,101198.50
2023-04-07T10:51:40.458Z,101210.50
2023-04-07T10:54:21.123Z,101209.28
2023-04-07T10:57:02.751Z,101216.72
2023-04-07T10:59:33.265Z,101210.97
2023-04-07T11:02:15.222Z,101206.31
2023-04-07T11:04:44.105Z,101211.84
2023-04-07T11:07:12.005Z,101204.53
2023-04-07T11:09:38.414Z,101218.44
2023-04-07T11:12:04.930Z,101208.72
2023-04-07T11:14:32.942Z,101208.00
2023-04-07T11:17:01.632Z,101217.69
2023-04-07T11:19:28.395Z,101212.66
2023-04-07T11:22:26.334Z,101220.63
2023-04-07T11:24:56.088Z,101219.97
2023-04-07T11:27:22.690Z,101217.25
2023-04-07T11:29:49.250Z,101222.97
2023-04-07T11:32:16.466Z,101223.50
2023-04-07T11:34:43.129Z,101221.72
2023-04-07T11:37:28.569Z,101225.91
2023-04-07T11:39:56.190Z,101225.34
2023-04-07T11:42:39.849Z,101228.91
2023-04-07T11:45:16.515Z,101231.31
2023-04-07T11:47:43.112Z,101236.97
2023-04-07T11:50:09.869Z,101239.19
2023-04-07T11:52:47.524Z,101246.81
2023-04-07T11:55:20.144Z,101245.63
2023-04-07T11:57:48.159Z,101232.81
2023-04-07T12:00:15.687Z,101241.06
2023-04-07T12:02:42.782Z,101250.69
2023-04-07T12:05:10.647Z,101260.28
2023-04-07T12:07:38.431Z,101254.84
2023-04-07T12:10:28.254Z,101253.72
2023-04-07T12:12:55.058Z,101250.88
2023-04-07T12:15:22.504Z,101253.63
2023-04-07T12:17:49.424Z,101257.69
2023-04-07T12:20:16.513Z,101256.88
2023-04-07T12:22:42.960Z,101258.22
2023-04-07T12:25:09.728Z,101262.28
2023-04-07T12:27:42.737Z,101259.91
2023-04-07T12:30:09.902Z,101270.75
2023-04-07T12:32:37.726Z,101259.78
2023-04-07T12:35:05.348Z,101263.66
2023-04-07T12:37:32.843Z,101274.00
2023-04-07T12:39:59.932Z,101276.00
2023-04-07T12:42:27.193Z,101270.53
2023-04-07T12:44:53.647Z,101274.50
2023-04-07T12:47:20.212Z,101270.03
2023-04-07T12:49:47.880Z,101275.97
2023-04-07T12:52:16.146Z,101274.31
2023-04-07T12:54:44.180Z,101282.97
2023-04-07T12:57:11.039Z,101286.75
2023-04-07T12:59:37.493Z,101279.13
2023-04-07T13:02:04.155Z,101271.19
2023-04-07T13:04:31.343Z,101286.97
2023-04-07T13:06:57.900Z,101277.88
2023-04-07T13:09:25.091Z,101284.56
2023-04-07T13:11:51.548Z,101279.00
2023-04-07T13:14:17.957Z,101281.00
2023-04-07T13:16:44.772Z,101281.22
2023-04-07T13:19:11.253Z,101280.59
2023-04-07T13:21:45.282Z,101285.94
2023-04-07T13:24:12.932Z,101274.84
2023-04-07T13:26:39.333Z,101275.06
2023-04-07T13:29:05.822Z,101285.19
2023-04-07T13:31:32.649Z,101283.22
2023-04-07T13:33:59.032Z,101288.75
2023-04-07T13:36:27.290Z,101286.75
2023-04-07T13:38:53.760Z,101294.19
2023-04-07T13:41:21.498Z,101282.66
2023-04-07T13:43:48.119Z,101284.00
2023-04-07T13:46:27.213Z,101290.78
2023-04-07T13:48:55.376Z,101296.88
2023-04-07T13:51:22.030Z,101287.69
2023-04-07T13:53:48.782Z,101287.22
2023-04-07T13:56:15.446Z,101287.84
2023-04-07T13:58:41.860Z,101296.31
2023-04-07T14:01:08.534Z,101290.88
2023-04-07T14:03:35.411Z,101291.41
2023-04-07T14:06:02.548Z,101290.69
2023-04-07T14:08:29.092Z,101302.94
2023-04-07T14:10:55.691Z,101293.75
2023-04-07T14:13:22.160Z,101303.88
2023-04-07T14:15:49.673Z,101300.53
2023-04-07T14:18:17.327Z,101299.19
2023-04-07T14:20:43.753Z,101294.38
2023-04-07T14:23:10.784Z,101298.56
2023-04-07T14:25:37.233Z,101298.50
2023-04-07T14:28:03.754Z,101298.97
2023-04-07T14:30:31.098Z,101300.03
2023-04-07T14:32:57.602Z,101297.09
2023-04-07T14:35:24.338Z,101302.22
2023-04-07T14:37:52.394Z,101304.41
2023-04-07T14:40:21.294Z,101300.03
2023-04-07T14:42:48.670Z,101309.41
2023-04-07T14:45:15.468Z,101307.88
2023-04-07T14:47:41.912Z,101296.66
2023-04-07T14:50:08.563Z,101306.81
2023-04-07T14:52:34.961Z,101298.66
2023-04-07T14:55:01.728Z,101302.53
2023-04-07T14:57:28.201Z,101304.03
2023-04-07T14:59:54.692Z,101303.06
2023-04-07T15:02:22.038Z,101309.13
2023-04-07T15:04:48.556Z,101307.25
2023-04-07T15:07:15.393Z,101312.03
2023-04-07T15:09:41.885Z,101305.88
2023-04-07T15:12:08.309Z,101323.13
2023-04-07T15:14:34.693Z,101316.75
2023-04-07T15:17:01.099Z,101315.09
2023-04-07T15:19:27.536Z,101319.56
2023-04-07T15:21:53.962Z,101323.03
2023-04-07T15:24:22.168Z,101327.22
2023-04-07T15:26:49.243Z,101321.03
2023-04-07T15:29:15.765Z,101325.09
2023-04-07T15:31:42.242Z,101324.78
2023-04-07T15:34:08.722Z,101328.03
2023-04-07T15:36:35.216Z,101323.03
2023-04-07T15:39:04.364Z,101322.50
2023-04-07T15:41:31.149Z,101327.94
2023-04-07T15:43:59.516Z,101328.16
2023-04-07T15:46:26.425Z,101338.91
2023-04-07T15:48:53.087Z,101337.66
2023-04-07T15:51:19.621Z,101336.06
2023-04-07T15:53:46.172Z,101336.28
2023-04-07T15:56:13.810Z,101339.72
2023-04-07T15:58:40.460Z,101343.50
2023-04-07T16:01:07.921Z,101347.78
2023-04-07T16:03:34.472Z,101357.91
2023-04-07T16:06:00.984Z,101350.91
2023-04-07T16:08:27.389Z,101359.19
2023-04-07T16:10:53.806Z,101350.41
2023-04-07T16:13:20.332Z,101358.97
2023-04-07T16:15:46.763Z,101360.00
2023-04-07T16:18:13.198Z,101360.84
2023-04-07T16:20:39.749Z,101357.94
2023-04-07T16:23:06.241Z,101356.03
2023-04-07T16:25:32.672Z,101358.59
2023-04-07T16:27:59.140Z,101358.75
2023-04-07T16:30:25.622Z,101368.25
2023-04-07T16:32:52.314Z,101367.44
2023-04-07T16:35:19.019Z,101365.84
2023-04-07T16:37:49.980Z,101365.22
2023-04-07T16:40:16.507Z,101366.06
2023-04-07T16:42:42.920Z,101369.63
2023-04-07T16:45:09.755Z,101365.13
2023-04-07T16:47:37.633Z,101378.19
2023-04-07T16:50:04.854Z,101379.31
2023-04-07T16:52:31.836Z,101371.06
2023-04-07T16:54:59.404Z,101383.31
2023-04-07T16:57:26.020Z,101378.38
2023-04-07T16:59:52.706Z,101384.22
2023-04-07T17:02:19.381Z,101390.56
2023-04-07T17:04:46.053Z,101394.34
2023-04-07T17:07:12.460Z,101394.44
2023-04-07T17:09:39.565Z,101397.97
2023-04-07T17:12:06.350Z,101401.53
2023-04-07T17:14:33.353Z,101408.81
2023-04-07T17:16:59.855Z,101407.88
2023-04-07T17:19:26.412Z,101402.78
2023-04-07T17:21:52.833Z,101416.44
2023-04-07T17:24:19.281Z,101408.56
2023-04-07T17:26:49.241Z,101414.72
2023-04-07T17:29:16.761Z,101410.44
2023-04-07T17:31:43.508Z,101420.88
2023-04-07T17:34:11.178Z,101422.56
2023-04-07T17:36:37.997Z,101435.72
2023-04-07T17:39:04.951Z,101432.34
2023-04-07T17:41:34.417Z,101440.94
2023-04-07T17:44:01.396Z,101439.56
2023-04-07T17:46:28.148Z,101442.06
2023-04-07T17:48:55.051Z,101444.78
2023-04-07T17:51:21.496Z,101450.84
2023-04-07T17:53:48.609Z,101450.84
2023-04-07T17:56:15.261Z,101454.47
2023-04-07T17:58:41.805Z,101462.41
2023-04-07T18:01:11.673Z,101458.22
2023-04-07T18:03:38.280Z,101461.94
2023-04-07T18:06:05.182Z,101460.38
2023-04-07T18:08:31.692Z,101463.91
2023-04-07T18:10:58.101Z,101478.72
2023-04-07T18:13:24.574Z,101466.72
2023-04-07T18:15:51.143Z,101484.16
2023-04-07T18:18:19.123Z,101473.88
2023-04-07T18:20:45.940Z,101483.59
2023-04-07T18:23:12.479Z,101486.94
2023-04-07T18:25:38.897Z,101491.41
2023-04-07T18:28:05.400Z,101486.19
2023-04-07T18:30:31.875Z,101494.97
2023-04-07T18:32:58.336Z,101494.13
2023-04-07T18:35:25.582Z,101496.00
2023-04-07T18:37:52.132Z,101502.88
2023-04-07T18:40:18.627Z,101503.81
2023-04-07T18:42:45.243Z,101502.13
2023-04-07T18:45:11.662Z,101503.25
2023-04-07T18:47:39.070Z,101511.06
2023-04-07T18:50:06.088Z,101513.69
2023-04-07T18:52:32.581Z,101511.28
2023-04-07T18:54:59.051Z,101518.34
2023-04-07T18:57:25.513Z,101520.31
2023-04-07T18:59:52.876Z,101523.78
2023-04-07T19:02:19.476Z,101528.13
2023-04-07T19:04:46.112Z,101523.00
2023-04-07T19:07:12.563Z,101525.59
2023-04-07T19:09:39.824Z,101538.84
2023-04-07T19:12:06.540Z,101532.91
2023-04-07T19:14:32.990Z,101541.66
2023-04-07T19:16:59.534Z,101536.59
2023-04-07T19:19:26.454Z,101541.06
2023-04-07T19:21:52.890Z,101548.91
2023-04-07T19:24:19.401Z,101553.25
2023-04-07T19:26:45.944Z,101549.91
2023-04-07T19:29:12.480Z,101550.84
2023-04-07T19:31:39.564Z,101559.59
2023-04-07T19:34:06.228Z,101556.34
2023-04-07T19:36:32.842Z,101559.03
2023-04-07T19:38:59.282Z,101553.91
2023-04-07T19:41:25.913Z,101557.47
2023-04-07T19:43:53.213Z,101560.97
2023-04-07T19:46:19.822Z,101563.56
2023-04-07T19:48:46.922Z,101559.41
2023-04-07T19:51:13.418Z,101565.63
2023-04-07T19:53:40.001Z,101574.56
2023-04-07T19:56:06.510Z,101571.94
2023-04-07T19:58:34.268Z,101574.56
2023-04-07T20:01:01.043Z,101579.03
2023-04-07T20:03:27.643Z,101582.47
2023-04-07T20:05:54.556Z,101590.19
2023-04-07T20:08:21.354Z,101588.53
2023-04-07T20:10:51.336Z,101581.75
2023-04-07T20:13:17.738Z,101585.34
2023-04-07T20:15:44.418Z,101590.56
2023-04-07T20:18:11.167Z,101586.28
2023-04-07T20:20:37.747Z,101592.31
2023-04-07T20:23:04.192Z,101598.47
2023-04-07T20:25:30.623Z,101589.06
2023-04-07T20:27:57.071Z,101596.06
2023-04-07T20:30:23.468Z,101599.66
2023-04-07T20:32:49.970Z,101599.75
2023-04-07T20:35:16.650Z,101603.19
2023-04-07T20:37:44.433Z,101605.88
2023-04-07T20:40:11.709Z,101605.88
2023-04-07T20:42:38.273Z,101611.19
2023-04-07T20:45:06.483Z,101610.28
2023-04-07T20:47:35.889Z,101613.97
2023-04-07T20:50:02.749Z,101608.94
2023-04-07T20:52:29.250Z,101608.84
2023-04-07T20:54:56.501Z,101617.69
2023-04-07T20:57:23.060Z,101626.41
2023-04-07T20:59:49.685Z,101621.19
2023-04-07T21:02:16.431Z,101630.72
2023-04-07T21:04:43.770Z,101629.78
2023-04-07T21:07:11.156Z,101621.38
2023-04-07T21:09:37.535Z,101618.69
2023-04-07T21:12:04.347Z,101623.06
2023-04-07T21:14:31.997Z,101621.31
2023-04-07T21:16:59.115Z,101627.44
2023-04-07T21:19:26.064Z,101635.25
2023-04-07T21:21:52.523Z,101637.94
2023-04-07T21:24:19.063Z,101628.25
2023-04-07T21:26:45.578Z,101632.66
2023-04-07T21:29:12.172Z,101632.66
2023-04-07T21:31:39.175Z,101625.75
2023-04-07T21:34:05.843Z,101636.25
2023-04-07T21:36:32.813Z,101633.84
2023-04-07T21:38:59.248Z,101638.13
2023-04-07T21:41:25.953Z,101638.94
2023-04-07T21:43:52.416Z,101640.72
2023-04-07T21:46:19.069Z,101635.50
2023-04-07T21:48:45.735Z,101630.97
2023-04-07T21:51:12.222Z,101638.00
2023-04-07T21:53:38.738Z,101638.94
2023-04-07T21:56:05.738Z,101638.88
2023-04-07T21:58:32.192Z,101640.53
2023-04-07T22:00:58.683Z,101628.44
2023-04-07T22:03:25.312Z,101632.72
2023-04-07T22:05:51.930Z,101638.78
2023-04-07T22:08:18.416Z,101630.88
2023-04-07T22:10:44.898Z,101632.66
2023-04-07T22:13:11.324Z,101631.72
2023-04-07T22:15:37.748Z,101636.09
2023-04-07T22:18:04.750Z,101636.09
2023-04-07T22:20:31.331Z,101631.72
2023-04-07T22:22:58.007Z,101635.16
2023-04-07T22:25:25.053Z,101630.78
2023-04-07T22:27:54.396Z,101638.53
2023-04-07T22:30:20.847Z,101646.44
2023-04-07T22:32:48.174Z,101640.47
2023-04-07T22:35:14.840Z,101649.13
2023-04-07T22:37:41.336Z,101650.03
2023-04-07T22:40:08.750Z,101643.22
2023-04-07T22:42:35.456Z,101647.63
2023-04-07T22:45:01.938Z,101642.47
2023-04-07T22:47:28.386Z,101653.84
2023-04-07T22:49:54.917Z,101646.94
2023-04-07T22:52:21.353Z,101653.09
2023-04-07T22:54:47.763Z,101650.56
2023-04-07T22:57:14.240Z,101646.28
2023-04-07T22:59:41.015Z,101649.81
2023-04-07T23:02:07.539Z,101654.94
2023-04-07T23:04:34.104Z,101655.75
2023-04-07T23:07:00.518Z,101648.81
2023-04-07T23:09:27.937Z,101650.56
2023-04-07T23:11:54.296Z,101659.31
2023-04-07T23:14:20.834Z,101655.84
2023-04-07T23:16:47.287Z,101656.75
2023-04-07T23:19:15.820Z,101665.50
2023-04-07T23:21:42.983Z,101664.69
2023-04-07T23:24:09.744Z,101663.09
2023-04-07T23:26:36.157Z,101660.56
2023-04-07T23:29:03.613Z,101666.63
2023-04-07T23:31:30.249Z,101667.53
2023-04-07T23:33:59.519Z,101669.28
2023-04-07T23:36:27.088Z,101671.88
2023-04-07T23:38:55.205Z,101667.59
2023-04-07T23:41:22.397Z,101665.00
2023-04-07T23:43:49.065Z,101674.66
2023-04-07T23:46:15.627Z,101671.94
2023-04-07T23:48:42.475Z,101673.72
2023-04-07T23:51:08.865Z,101675.38
2023-04-07T23:53:35.351Z,101685.81
2023-04-07T23:56:01.940Z,101685.81
2023-04-07T23:58:28.375Z,101684.22
